Time;durP1;ratioP1;P1;durP2;ratioP2;P2;SDS_P1;SDS_P2;PMS_P1;PMS_P2;Temp;Humidity;BMP_temperature;BMP_pressure;BME280_temperature;BME280_humidity;BME280_pressure;Samples;Min_cycle;Max_cycle;Signal;HPM_P1;HPM_P2
2023/05/24 00:01:36;;;;;;;5.18;1.92;;;12.50;52.30;;;;;;5010461;28;20037;-51
2023/05/24 00:04:03;;;;;;;3.63;1.95;;;12.50;52.40;;;;;;5004714;28;20050;-51
2023/05/24 00:06:33;;;;;;;3.38;1.83;;;12.50;52.40;;;;;;5009928;28;20069;-51
2023/05/24 00:09:01;;;;;;;3.00;1.40;;;12.40;52.50;;;;;;5014237;28;20442;-53
2023/05/24 00:11:27;;;;;;;4.40;1.90;;;12.30;52.40;;;;;;5007927;28;20053;-49
2023/05/24 00:13:56;;;;;;;2.92;1.50;;;12.30;52.60;;;;;;5010634;28;20042;-52
2023/05/24 00:16:29;;;;;;;3.65;1.50;;;12.30;52.60;;;;;;5009906;28;20042;-50
2023/05/24 00:19:03;;;;;;;4.00;1.30;;;12.20;52.70;;;;;;5011157;28;20072;-53
2023/05/24 00:21:35;;;;;;;7.88;2.05;;;12.20;52.90;;;;;;5008205;28;20129;-48
2023/05/24 00:24:05;;;;;;;7.70;1.70;;;12.20;53.00;;;;;;5008785;28;20707;-52
2023/05/24 00:26:34;;;;;;;4.72;1.38;;;12.10;53.00;;;;;;5009587;28;20132;-50
2023/05/24 00:29:06;;;;;;;4.10;2.33;;;12.10;53.00;;;;;;4993743;28;20046;-49
2023/05/24 00:31:38;;;;;;;3.50;1.58;;;12.10;53.20;;;;;;4992333;28;20176;-51
2023/05/24 00:34:08;;;;;;;2.97;1.40;;;12.00;52.90;;;;;;4987350;28;20395;-52
2023/05/24 00:36:40;;;;;;;4.95;1.50;;;12.00;53.00;;;;;;5008897;28;20498;-49
2023/05/24 00:39:07;;;;;;;2.70;1.60;;;11.90;53.10;;;;;;5011454;28;20038;-50
2023/05/24 00:41:35;;;;;;;4.95;2.28;;;11.90;53.20;;;;;;4985912;28;20487;-51
2023/05/24 00:44:02;;;;;;;4.13;1.88;;;11.80;53.20;;;;;;4991942;28;20038;-52
2023/05/24 00:46:33;;;;;;;3.45;1.50;;;11.80;53.30;;;;;;4991803;28;20077;-50
2023/05/24 00:49:03;;;;;;;4.28;1.52;;;11.80;53.60;;;;;;4976970;28;20702;-52
2023/05/24 00:51:32;;;;;;;2.08;1.13;;;11.70;53.50;;;;;;5009032;28;20096;-50
2023/05/24 00:54:00;;;;;;;4.15;1.58;;;11.70;53.30;;;;;;4991036;28;20161;-52
2023/05/24 00:56:30;;;;;;;3.25;1.85;;;11.70;53.30;;;;;;5007053;28;20391;-53
2023/05/24 00:59:00;;;;;;;5.93;1.27;;;11.60;53.30;;;;;;4993254;28;20066;-49
2023/05/24 01:01:29;;;;;;;3.75;1.92;;;11.60;53.50;;;;;;5007196;28;20038;-52
2023/05/24 01:03:59;;;;;;;2.30;1.75;;;11.60;53.60;;;;;;5008959;28;20526;-52
2023/05/24 01:06:27;;;;;;;2.92;1.25;;;11.50;53.70;;;;;;4984149;28;20060;-52
2023/05/24 01:09:24;;;;;;;3.28;1.50;;;11.50;53.70;;;;;;5002674;28;20048;-52
2023/05/24 01:12:18;;;;;;;3.80;1.30;;;11.50;54.40;;;;;;5008776;28;20489;-52
2023/05/24 01:15:03;;;;;;;3.35;2.03;;;11.50;54.00;;;;;;5000506;28;20450;-52
2023/05/24 01:17:37;;;;;;;2.15;1.70;;;11.40;54.10;;;;;;5009293;28;20084;-50
2023/05/24 01:20:12;;;;;;;4.07;1.58;;;11.40;53.90;;;;;;5007355;28;20044;-50
2023/05/24 01:22:56;;;;;;;2.00;1.58;;;11.30;54.30;;;;;;4991475;28;20045;-53
2023/05/24 01:25:55;;;;;;;3.30;1.45;;;11.30;54.40;;;;;;5007696;28;20129;-52
2023/05/24 01:28:25;;;;;;;5.95;1.27;;;11.30;54.50;;;;;;5005501;28;20052;-50
2023/05/24 01:30:58;;;;;;;3.75;1.50;;;11.20;53.80;;;;;;4991780;28;20446;-52
2023/05/24 01:33:30;;;;;;;1.67;1.55;;;11.20;53.90;;;;;;5008294;28;20046;-52
2023/05/24 01:36:07;;;;;;;4.88;1.42;;;11.10;54.00;;;;;;4991130;28;20050;-52
2023/05/24 01:38:40;;;;;;;4.13;1.50;;;11.10;54.00;;;;;;5010077;28;20054;-50
2023/05/24 01:41:36;;;;;;;3.15;1.20;;;11.10;54.00;;;;;;5009025;28;20049;-51
2023/05/24 01:44:09;;;;;;;4.80;1.48;;;11.10;54.50;;;;;;4988664;28;20506;-51
2023/05/24 01:46:37;;;;;;;2.60;1.20;;;11.00;54.00;;;;;;5008332;28;20507;-50
2023/05/24 01:49:19;;;;;;;3.00;1.92;;;11.00;54.20;;;;;;4992654;28;20541;-52
2023/05/24 01:52:14;;;;;;;2.15;1.10;;;11.00;54.20;;;;;;4999721;28;20048;-51
2023/05/24 01:54:49;;;;;;;3.03;1.42;;;11.00;54.40;;;;;;5000372;28;21050;-53
2023/05/24 01:57:17;;;;;;;;;;;10.90;54.10;;;;;;5005005;28;20034;-52
2023/05/24 01:59:46;;;;;;;2.85;1.05;;;10.90;54.30;;;;;;4992084;28;19964;-49
2023/05/24 02:02:18;;;;;;;3.35;1.33;;;10.80;53.70;;;;;;4991114;28;20045;-51
2023/05/24 02:04:50;;;;;;;2.88;1.30;;;10.80;54.10;;;;;;4987927;28;20123;-52
2023/05/24 02:07:20;;;;;;;5.53;2.20;;;10.80;54.20;;;;;;5005854;28;20045;-52
2023/05/24 02:09:52;;;;;;;3.92;1.70;;;10.80;54.30;;;;;;4991584;28;20141;-51
2023/05/24 02:12:21;;;;;;;3.40;1.52;;;10.70;54.50;;;;;;4992936;28;20077;-52
2023/05/24 02:14:49;;;;;;;4.45;1.50;;;10.70;54.40;;;;;;5008596;28;20053;-51
2023/05/24 02:17:17;;;;;;;2.85;1.35;;;10.70;54.50;;;;;;4989100;28;20133;-50
2023/05/24 02:19:47;;;;;;;4.88;1.90;;;10.60;54.50;;;;;;4991980;28;20725;-51
2023/05/24 02:22:15;;;;;;;3.80;2.00;;;10.60;54.60;;;;;;5008417;28;20045;-52
2023/05/24 02:24:50;;;;;;;3.42;1.55;;;10.60;54.80;;;;;;4994077;28;20045;-49
2023/05/24 02:27:19;;;;;;;1.85;1.20;;;10.60;54.80;;;;;;5007503;28;20136;-52
2023/05/24 02:29:46;;;;;;;2.00;1.13;;;10.50;54.80;;;;;;5011734;28;20068;-51
2023/05/24 02:32:13;;;;;;;3.40;1.45;;;10.50;54.70;;;;;;5012132;28;20053;-50
2023/05/24 02:34:44;;;;;;;4.32;1.38;;;10.50;55.40;;;;;;5010845;28;20624;-48
2023/05/24 02:37:13;;;;;;;3.03;1.40;;;10.50;54.80;;;;;;4994663;28;20045;-53
2023/05/24 02:39:41;;;;;;;6.82;1.58;;;10.40;54.80;;;;;;5013133;28;20073;-52
2023/05/24 02:42:17;;;;;;;3.38;1.35;;;10.40;54.80;;;;;;4994963;28;20414;-53
2023/05/24 02:44:47;;;;;;;3.55;1.38;;;10.40;55.00;;;;;;5010634;28;20042;-51
2023/05/24 02:47:17;;;;;;;3.03;1.70;;;10.40;54.90;;;;;;5012127;28;20130;-52
2023/05/24 02:49:44;;;;;;;2.80;1.20;;;10.30;54.90;;;;;;5012369;28;20046;-52
2023/05/24 02:52:12;;;;;;;3.03;1.83;;;10.30;54.90;;;;;;5011356;28;20057;-51
2023/05/24 02:54:41;;;;;;;4.00;1.70;;;10.30;54.90;;;;;;4990131;28;20634;-48
2023/05/24 02:57:15;;;;;;;3.53;1.45;;;10.20;54.90;;;;;;5011742;28;20441;-50
2023/05/24 02:59:55;;;;;;;2.80;1.20;;;10.20;55.00;;;;;;4995520;28;20388;-49
2023/05/24 03:02:22;;;;;;;4.28;1.90;;;10.20;55.20;;;;;;5005972;28;20168;-50
2023/05/24 03:04:59;;;;;;;4.85;2.13;;;10.20;55.10;;;;;;4993873;28;20554;-52
2023/05/24 03:07:29;;;;;;;2.35;1.38;;;10.20;55.30;;;;;;5012017;28;20046;-52
2023/05/24 03:09:58;;;;;;;4.80;1.77;;;10.10;55.00;;;;;;4994385;28;20121;-51
2023/05/24 03:12:31;;;;;;;3.47;1.70;;;10.10;55.10;;;;;;5008711;28;20049;-51
2023/05/24 03:14:58;;;;;;;4.03;1.60;;;10.10;55.10;;;;;;5010265;28;20498;-49
2023/05/24 03:17:25;;;;;;;2.95;1.45;;;10.10;55.20;;;;;;4995044;28;20064;-49
2023/05/24 03:19:52;;;;;;;3.15;2.17;;;10.00;55.10;;;;;;4991226;28;20095;-48
2023/05/24 03:22:19;;;;;;;5.10;2.10;;;10.00;55.30;;;;;;5012204;28;20100;-52
2023/05/24 03:24:47;;;;;;;7.00;1.90;;;10.00;55.30;;;;;;4990950;28;20038;-49
2023/05/24 03:27:14;;;;;;;3.83;1.80;;;10.00;55.30;;;;;;5010544;28;20120;-52
2023/05/24 03:29:41;;;;;;;1.95;1.50;;;10.00;55.40;;;;;;4994911;28;20096;-51
2023/05/24 03:32:08;;;;;;;3.97;1.70;;;9.90;55.40;;;;;;4994235;28;20073;-50
2023/05/24 03:34:34;;;;;;;4.82;1.70;;;9.90;55.50;;;;;;5007600;28;20054;-52
2023/05/24 03:37:03;;;;;;;5.03;2.15;;;9.90;55.50;;;;;;4990729;28;20050;-49
2023/05/24 03:39:32;;;;;;;5.90;2.08;;;9.90;55.50;;;;;;4991848;28;20045;-52
2023/05/24 03:42:23;;;;;;;3.35;1.60;;;9.90;55.60;;;;;;4991075;28;20097;-51
2023/05/24 03:44:53;;;;;;;3.88;1.65;;;9.90;55.60;;;;;;4993902;28;20034;-52
2023/05/24 03:47:24;;;;;;;2.15;1.60;;;9.80;55.60;;;;;;5011732;28;20046;-51
2023/05/24 03:49:51;;;;;;;3.70;1.73;;;9.80;55.80;;;;;;4990133;28;20510;-48
2023/05/24 03:52:18;;;;;;;3.47;1.65;;;9.80;55.80;;;;;;4998829;28;20050;-52
2023/05/24 03:54:45;;;;;;;4.03;1.65;;;9.80;55.90;;;;;;5010626;28;20042;-51
2023/05/24 03:57:17;;;;;;;4.00;2.20;;;9.80;56.10;;;;;;4993685;28;20046;-52
2023/05/24 03:59:44;;;;;;;3.88;1.98;;;9.80;56.20;;;;;;4994674;28;20042;-51
2023/05/24 04:02:11;;;;;;;4.50;1.90;;;9.80;56.20;;;;;;4998475;28;20072;-52
2023/05/24 04:04:42;;;;;;;5.55;2.33;;;9.80;56.40;;;;;;5004307;28;20108;-51
2023/05/24 04:07:18;;;;;;;3.15;1.85;;;9.80;56.40;;;;;;4993321;28;20050;-49
2023/05/24 04:09:49;;;;;;;3.85;2.42;;;9.80;56.70;;;;;;5011649;28;20058;-52
2023/05/24 04:12:16;;;;;;;2.90;1.80;;;9.80;56.80;;;;;;4985725;28;20399;-49
2023/05/24 04:14:45;;;;;;;6.30;2.20;;;9.80;56.70;;;;;;5010077;28;20050;-48
2023/05/24 04:17:15;;;;;;;5.60;2.10;;;9.80;56.90;;;;;;5011109;28;20108;-49
2023/05/24 04:19:43;;;;;;;4.25;1.70;;;9.90;56.90;;;;;;4992472;28;20156;-48
2023/05/24 04:22:09;;;;;;;4.85;2.30;;;9.90;57.00;;;;;;5010696;28;20498;-51
2023/05/24 04:24:38;;;;;;;3.30;2.50;;;9.90;57.20;;;;;;4974518;28;20085;-52
2023/05/24 04:27:08;;;;;;;4.72;2.90;;;9.90;57.40;;;;;;4991614;28;20065;-51
2023/05/24 04:29:35;;;;;;;5.00;2.38;;;9.90;57.60;;;;;;4986881;28;20050;-52
2023/05/24 04:32:05;;;;;;;3.75;2.58;;;10.00;58.00;;;;;;5008731;28;20060;-48
2023/05/24 04:34:32;;;;;;;5.03;3.28;;;10.00;58.30;;;;;;5007994;28;20388;-50
2023/05/24 04:36:59;;;;;;;5.35;2.92;;;10.00;58.30;;;;;;4985785;28;20538;-52
2023/05/24 04:39:27;;;;;;;4.78;3.00;;;10.10;58.50;;;;;;5007071;28;20037;-50
2023/05/24 04:41:55;;;;;;;5.95;3.53;;;10.10;58.60;;;;;;5007309;28;20042;-52
2023/05/24 04:44:21;;;;;;;4.65;3.15;;;10.20;58.90;;;;;;5010944;28;20125;-52
2023/05/24 04:46:48;;;;;;;7.60;3.70;;;10.30;58.90;;;;;;5017393;22;20136;-41
2023/05/24 04:49:16;;;;;;;4.68;3.05;;;10.30;59.10;;;;;;5029222;28;20671;-41
2023/05/24 04:51:45;;;;;;;9.10;3.90;;;10.40;59.30;;;;;;5027908;28;20052;-41
2023/05/24 04:54:11;;;;;;;9.35;3.85;;;10.40;59.50;;;;;;5020074;28;20064;-41
2023/05/24 04:56:38;;;;;;;8.25;3.88;;;10.50;59.80;;;;;;5020338;28;20142;-42
2023/05/24 04:59:06;;;;;;;14.98;4.63;;;10.50;60.00;;;;;;5015391;28;20099;-41
2023/05/24 05:01:33;;;;;;;7.85;4.15;;;10.60;60.40;;;;;;5009955;28;20057;-41
2023/05/24 05:04:03;;;;;;;8.43;4.35;;;10.70;60.60;;;;;;5016613;28;20462;-42
2023/05/24 05:06:30;;;;;;;11.10;4.93;;;10.80;60.70;;;;;;5017396;28;20715;-49
2023/05/24 05:08:57;;;;;;;10.18;4.90;;;10.80;60.80;;;;;;5011750;28;20045;-51
2023/05/24 05:11:24;;;;;;;6.78;4.70;;;10.90;60.90;;;;;;5012586;28;20049;-50
2023/05/24 05:13:52;;;;;;;10.85;4.75;;;10.90;60.90;;;;;;5006681;28;20038;-52
2023/05/24 05:16:19;;;;;;;7.78;4.18;;;11.10;61.00;;;;;;5028197;28;20057;-49
2023/05/24 05:18:45;;;;;;;10.68;5.10;;;11.10;61.10;;;;;;5020780;28;20053;-51
2023/05/24 05:21:12;;;;;;;10.68;4.72;;;11.20;61.10;;;;;;5020627;28;20046;-53
2023/05/24 05:23:41;;;;;;;9.15;4.97;;;11.20;61.10;;;;;;5017412;28;20124;-52
2023/05/24 05:26:08;;;;;;;10.02;5.50;;;11.30;61.20;;;;;;5009988;28;20049;-49
2023/05/24 05:28:35;;;;;;;10.15;5.10;;;11.40;61.20;;;;;;5025033;28;20149;-50
2023/05/24 05:31:02;;;;;;;11.35;4.45;;;11.60;61.30;;;;;;5012394;28;20049;-48
2023/05/24 05:33:31;;;;;;;10.32;4.38;;;11.40;61.30;;;;;;5020340;28;20042;-49
2023/05/24 05:35:58;;;;;;;14.38;5.10;;;11.50;61.60;;;;;;5013083;28;20049;-53
2023/05/24 05:38:24;;;;;;;8.95;5.35;;;11.60;61.50;;;;;;5027460;28;20044;-54
2023/05/24 05:40:51;;;;;;;10.95;5.05;;;11.70;62.10;;;;;;5016929;28;20069;-53
2023/05/24 05:43:18;;;;;;;9.80;4.70;;;11.70;61.50;;;;;;5017930;28;20080;-52
2023/05/24 05:45:44;;;;;;;10.93;5.45;;;11.70;61.40;;;;;;5027735;28;20053;-49
2023/05/24 05:48:11;;;;;;;11.07;5.50;;;11.80;61.50;;;;;;5019805;28;20037;-49
2023/05/24 05:50:38;;;;;;;13.75;5.13;;;11.90;61.80;;;;;;5017548;28;20073;-53
2023/05/24 05:53:05;;;;;;;10.38;4.82;;;12.00;61.90;;;;;;5021147;28;20054;-49
2023/05/24 05:55:31;;;;;;;12.68;5.43;;;12.10;61.80;;;;;;5016236;28;20038;-52
2023/05/24 05:57:58;;;;;;;13.02;5.72;;;12.20;61.50;;;;;;5018119;28;20498;-48
2023/05/24 06:00:24;;;;;;;9.70;5.00;;;12.40;61.60;;;;;;5032014;28;20072;-52
2023/05/24 06:02:51;;;;;;;14.25;4.80;;;12.50;61.50;;;;;;5021638;28;20048;-49
2023/05/24 06:05:18;;;;;;;15.02;5.43;;;12.60;61.20;;;;;;5011289;28;20057;-52
2023/05/24 06:07:46;;;;;;;10.63;4.80;;;12.80;61.10;;;;;;5021015;28;20052;-52
2023/05/24 06:10:13;;;;;;;10.93;5.05;;;12.90;61.00;;;;;;5031991;28;20156;-50
2023/05/24 06:12:39;;;;;;;9.80;4.90;;;13.00;60.80;;;;;;5014817;28;20108;-52
2023/05/24 06:15:07;;;;;;;13.98;5.50;;;13.20;60.80;;;;;;5025417;28;20045;-54
2023/05/24 06:17:36;;;;;;;7.03;4.10;;;13.30;60.40;;;;;;5025683;28;20044;-50
2023/05/24 06:20:09;;;;;;;8.93;4.03;;;13.40;60.10;;;;;;5028018;28;20087;-51
2023/05/24 06:22:37;;;;;;;12.93;4.78;;;13.60;60.00;;;;;;5013213;28;20049;-50
2023/05/24 06:25:04;;;;;;;11.55;4.70;;;13.70;60.10;;;;;;5001269;28;20125;-55
2023/05/24 06:27:31;;;;;;;9.18;5.30;;;13.80;60.10;;;;;;5009662;28;20171;-53
2023/05/24 06:29:57;;;;;;;8.43;4.68;;;13.90;59.80;;;;;;5003015;28;20088;-53
2023/05/24 06:32:24;;;;;;;9.23;4.78;;;14.10;59.30;;;;;;5009122;28;20634;-52
2023/05/24 06:34:53;;;;;;;10.32;5.28;;;14.20;59.00;;;;;;5011845;28;20434;-49
2023/05/24 06:37:24;;;;;;;12.38;5.35;;;14.20;58.40;;;;;;5014930;28;20049;-50
2023/05/24 06:39:51;;;;;;;11.15;4.65;;;14.30;58.20;;;;;;5000820;28;20049;-52
2023/05/24 06:42:17;;;;;;;10.93;4.82;;;14.40;58.10;;;;;;5011889;28;20491;-52
2023/05/24 06:44:45;;;;;;;12.52;4.57;;;14.60;58.00;;;;;;5029105;28;20108;-52
2023/05/24 06:47:11;;;;;;;10.35;4.38;;;14.60;57.50;;;;;;5031273;28;20072;-54
2023/05/24 06:49:38;;;;;;;12.23;4.43;;;14.70;57.30;;;;;;5013851;28;20046;-49
2023/05/24 06:52:06;;;;;;;11.77;4.55;;;14.70;57.20;;;;;;5016041;28;20083;-55
2023/05/24 06:54:33;;;;;;;10.40;3.50;;;14.70;56.90;;;;;;5019383;28;20506;-49
2023/05/24 06:57:00;;;;;;;10.27;3.45;;;14.70;56.40;;;;;;5015779;28;20104;-53
2023/05/24 06:59:26;;;;;;;11.32;4.55;;;14.80;56.00;;;;;;5026898;28;20061;-51
2023/05/24 07:01:56;;;;;;;12.98;4.35;;;14.80;56.00;;;;;;5024650;28;20033;-53
2023/05/24 07:04:25;;;;;;;10.88;4.05;;;14.80;56.00;;;;;;5011033;28;20488;-52
2023/05/24 07:06:52;;;;;;;15.13;4.35;;;14.80;56.00;;;;;;5025216;28;20065;-54
2023/05/24 07:09:19;;;;;;;7.63;3.28;;;14.70;55.90;;;;;;5028081;28;20038;-50
2023/05/24 07:11:46;;;;;;;7.65;2.72;;;14.80;56.10;;;;;;5007014;28;20513;-53
2023/05/24 07:14:15;;;;;;;8.18;3.53;;;14.70;56.10;;;;;;5016968;28;20038;-52
2023/05/24 07:16:42;;;;;;;6.43;3.42;;;14.70;56.50;;;;;;5021816;28;20077;-53
2023/05/24 07:19:08;;;;;;;14.98;4.38;;;14.80;56.90;;;;;;5015359;28;20065;-54
2023/05/24 07:21:37;;;;;;;10.75;3.25;;;14.80;56.90;;;;;;5018207;28;20103;-50
2023/05/24 07:24:04;;;;;;;11.85;4.22;;;14.80;56.70;;;;;;5027727;28;20930;-52
2023/05/24 07:26:31;;;;;;;8.93;3.53;;;14.90;56.50;;;;;;5005226;28;20052;-52
2023/05/24 07:28:58;;;;;;;10.85;3.78;;;14.90;56.60;;;;;;5031023;28;20045;-54
2023/05/24 07:31:26;;;;;;;12.93;4.05;;;15.00;56.70;;;;;;5031016;28;20096;-54
2023/05/24 07:33:52;;;;;;;11.43;4.93;;;15.00;56.90;;;;;;5028662;28;20039;-50
2023/05/24 07:36:20;;;;;;;10.02;4.32;;;15.00;56.50;;;;;;4991751;28;20034;-54
2023/05/24 07:38:46;;;;;;;9.82;4.60;;;15.10;56.80;;;;;;5021765;28;20124;-52
2023/05/24 07:41:13;;;;;;;11.95;3.75;;;15.10;56.70;;;;;;5000264;28;20117;-53
2023/05/24 07:43:40;;;;;;;12.85;3.97;;;15.20;56.50;;;;;;5028705;28;20493;-53
2023/05/24 07:46:06;;;;;;;15.40;4.60;;;15.30;56.50;;;;;;5011788;28;20046;-54
2023/05/24 07:48:33;;;;;;;10.35;3.80;;;15.40;56.50;;;;;;5023314;28;20046;-51
2023/05/24 07:51:00;;;;;;;11.13;3.67;;;15.50;56.40;;;;;;5021475;28;20054;-55
2023/05/24 07:53:27;;;;;;;12.82;3.92;;;15.60;56.70;;;;;;5012753;28;20045;-53
2023/05/24 07:55:53;;;;;;;11.25;3.58;;;15.70;56.40;;;;;;5012358;28;20041;-51
2023/05/24 07:58:20;;;;;;;9.57;4.18;;;15.70;56.20;;;;;;5024616;28;20037;-53
2023/05/24 08:00:47;;;;;;;9.93;3.85;;;15.70;56.00;;;;;;5030104;28;20041;-53
2023/05/24 08:03:14;;;;;;;15.15;5.03;;;15.80;55.70;;;;;;5031012;28;20350;-50
2023/05/24 08:05:41;;;;;;;9.30;4.95;;;15.70;55.50;;;;;;5020296;28;20057;-55
2023/05/24 08:08:08;;;;;;;9.70;4.00;;;15.80;55.70;;;;;;5022712;28;20111;-49
2023/05/24 08:10:35;;;;;;;13.48;4.55;;;15.80;55.90;;;;;;5030644;28;20437;-51
2023/05/24 08:13:02;;;;;;;13.32;4.80;;;15.90;56.10;;;;;;5016848;28;20111;-51
2023/05/24 08:15:29;;;;;;;9.90;5.15;;;15.90;56.20;;;;;;5001332;28;20056;-50
2023/05/24 08:17:55;;;;;;;10.00;4.28;;;16.00;55.80;;;;;;5014991;28;20554;-52
2023/05/24 08:20:22;;;;;;;10.77;3.80;;;16.10;55.50;;;;;;5005304;28;20050;-52
2023/05/24 08:22:49;;;;;;;7.57;4.35;;;16.20;55.30;;;;;;5009317;28;20053;-49
2023/05/24 08:25:16;;;;;;;11.63;3.83;;;16.20;54.70;;;;;;5013645;28;20042;-54
2023/05/24 08:27:42;;;;;;;10.25;3.45;;;16.30;54.90;;;;;;5019309;28;20071;-54
2023/05/24 08:30:09;;;;;;;11.18;4.53;;;16.40;54.70;;;;;;5030852;28;20498;-53
2023/05/24 08:32:37;;;;;;;9.27;3.55;;;16.40;53.70;;;;;;5026062;28;20042;-55
2023/05/24 08:35:04;;;;;;;14.93;3.67;;;16.40;53.50;;;;;;5017198;28;20498;-52
2023/05/24 08:37:48;;;;;;;8.85;4.05;;;16.40;52.90;;;;;;5030531;28;20116;-49
2023/05/24 08:40:15;;;;;;;7.85;3.70;;;16.50;53.00;;;;;;5007373;28;20120;-53
2023/05/24 08:42:44;;;;;;;11.35;4.45;;;16.40;52.90;;;;;;5020422;28;20497;-52
2023/05/24 08:45:12;;;;;;;7.75;4.18;;;16.40;53.40;;;;;;5020880;28;20037;-55
2023/05/24 08:47:40;;;;;;;13.10;4.82;;;16.40;53.20;;;;;;5029718;28;20567;-52
2023/05/24 08:50:07;;;;;;;8.18;4.80;;;16.50;53.50;;;;;;5019775;28;20053;-54
2023/05/24 08:52:35;;;;;;;13.48;4.32;;;16.40;53.40;;;;;;4996065;28;20045;-54
2023/05/24 08:55:05;;;;;;;7.93;4.07;;;16.40;53.30;;;;;;5017777;28;20422;-52
2023/05/24 08:57:38;;;;;;;12.95;3.90;;;16.40;53.40;;;;;;5017118;28;20461;-53
2023/05/24 09:00:09;;;;;;;11.35;5.55;;;16.40;53.80;;;;;;5029722;28;20048;-54
2023/05/24 09:02:40;;;;;;;13.32;4.38;;;16.50;53.80;;;;;;5029230;28;20041;-53
2023/05/24 09:05:09;;;;;;;11.13;4.55;;;16.50;53.90;;;;;;5015319;28;20934;-48
2023/05/24 09:07:37;;;;;;;12.77;4.82;;;16.50;54.30;;;;;;5025353;28;20046;-51
2023/05/24 09:10:06;;;;;;;11.05;4.07;;;16.60;54.10;;;;;;5028137;28;20581;-52
2023/05/24 09:12:35;;;;;;;15.70;4.70;;;16.60;53.90;;;;;;5023436;28;20719;-53
2023/05/24 09:15:06;;;;;;;11.57;4.38;;;16.70;53.50;;;;;;5013395;28;20128;-54
2023/05/24 09:17:35;;;;;;;12.05;3.92;;;16.80;53.40;;;;;;5029268;28;20076;-55
2023/05/24 09:20:05;;;;;;;6.80;3.80;;;16.90;53.30;;;;;;5030051;28;20037;-51
2023/05/24 09:22:33;;;;;;;12.75;4.70;;;17.00;53.20;;;;;;5016217;28;20037;-53
2023/05/24 09:25:04;;;;;;;7.05;3.60;;;17.00;52.90;;;;;;4996018;28;20077;-54
2023/05/24 09:27:33;;;;;;;8.65;4.18;;;17.10;52.50;;;;;;5015547;28;20088;-54
2023/05/24 09:30:00;;;;;;;8.63;3.63;;;17.10;52.30;;;;;;5028394;28;20046;-54
2023/05/24 09:32:29;;;;;;;12.48;3.83;;;17.20;52.20;;;;;;5029370;28;20041;-53
2023/05/24 09:34:57;;;;;;;8.13;3.67;;;17.20;52.40;;;;;;5017811;28;20045;-50
2023/05/24 09:37:26;;;;;;;8.80;3.67;;;17.30;52.40;;;;;;5027191;28;20041;-54
2023/05/24 09:39:58;;;;;;;11.95;3.80;;;17.30;52.30;;;;;;5024005;28;20050;-53
2023/05/24 09:42:27;;;;;;;10.57;3.65;;;17.40;52.30;;;;;;5015711;28;20076;-53
2023/05/24 09:45:09;;;;;;;7.70;3.50;;;17.50;51.60;;;;;;5010679;28;20049;-52
2023/05/24 09:47:40;;;;;;;12.33;3.87;;;17.60;51.30;;;;;;5028890;28;20045;-54
2023/05/24 09:50:16;;;;;;;9.48;3.70;;;17.70;51.70;;;;;;5017763;28;20760;-55
2023/05/24 09:52:43;;;;;;;8.00;3.42;;;17.80;51.70;;;;;;5017871;28;20038;-53
2023/05/24 09:55:14;;;;;;;7.47;3.35;;;17.90;51.30;;;;;;4991372;28;20737;-52
2023/05/24 09:57:43;;;;;;;15.07;4.30;;;18.10;51.50;;;;;;5021308;28;20041;-51
2023/05/24 10:00:15;;;;;;;8.15;3.90;;;18.20;51.50;;;;;;5026640;28;20107;-52
2023/05/24 10:02:43;;;;;;;12.63;4.70;;;18.30;51.20;;;;;;5016770;28;20410;-52
2023/05/24 10:05:20;;;;;;;9.38;3.75;;;18.40;51.10;;;;;;5008480;28;20069;-53
2023/05/24 10:07:47;;;;;;;9.05;3.60;;;18.60;50.60;;;;;;5021224;28;20413;-53
2023/05/24 10:10:14;;;;;;;5.15;3.17;;;18.60;50.80;;;;;;5028168;28;20041;-49
2023/05/24 10:12:42;;;;;;;8.73;3.33;;;18.70;49.90;;;;;;5014348;28;20050;-53
2023/05/24 10:15:10;;;;;;;8.15;4.97;;;18.80;49.60;;;;;;5021146;28;20508;-52
2023/05/24 10:17:36;;;;;;;8.80;3.72;;;18.80;49.40;;;;;;5028101;28;20575;-53
2023/05/24 10:20:05;;;;;;;8.02;2.83;;;18.80;48.70;;;;;;5013135;28;20046;-54
2023/05/24 10:22:39;;;;;;;8.60;3.53;;;18.80;48.60;;;;;;5016420;28;20044;-47
2023/05/24 10:25:07;;;;;;;8.65;3.58;;;18.80;48.30;;;;;;5017498;28;20128;-46
2023/05/24 10:27:37;;;;;;;8.85;3.53;;;18.80;48.50;;;;;;5017293;28;20116;-46
2023/05/24 10:30:08;;;;;;;10.60;3.85;;;18.70;48.60;;;;;;5025450;28;20145;-49
2023/05/24 10:32:41;;;;;;;9.30;3.53;;;18.70;48.40;;;;;;5011220;28;20418;-47
2023/05/24 10:35:11;;;;;;;8.38;4.03;;;18.60;48.40;;;;;;5002764;28;20052;-46
2023/05/24 10:37:37;;;;;;;7.25;2.88;;;18.50;48.30;;;;;;5014766;28;20068;-44
2023/05/24 10:40:08;;;;;;;10.15;3.35;;;18.50;48.40;;;;;;5027935;28;20033;-47
2023/05/24 10:42:38;;;;;;;8.80;3.67;;;18.40;49.10;;;;;;5031340;28;20167;-45
2023/05/24 10:45:23;;;;;;;8.30;3.20;;;18.40;49.30;;;;;;5022934;28;20042;-46
2023/05/24 10:47:51;;;;;;;7.72;3.42;;;18.40;49.10;;;;;;5011445;28;20038;-48
2023/05/24 10:50:19;;;;;;;10.02;3.53;;;18.40;49.30;;;;;;5009814;28;20042;-46
2023/05/24 10:52:48;;;;;;;9.27;4.35;;;18.40;49.30;;;;;;5010849;28;20482;-47
2023/05/24 10:55:17;;;;;;;6.70;3.03;;;18.40;49.20;;;;;;5012961;28;20053;-47
2023/05/24 10:57:44;;;;;;;6.93;2.78;;;18.40;49.70;;;;;;5014335;28;20120;-44
2023/05/24 11:00:24;;;;;;;9.88;3.65;;;18.40;49.50;;;;;;5013406;28;20498;-47
2023/05/24 11:03:01;;;;;;;;;;;18.50;49.90;;;;;;5044125;22;20076;-52
2023/05/24 11:05:37;;;;;;;6.13;3.40;;;18.60;50.10;;;;;;5024867;28;19921;-49
2023/05/24 11:08:06;;;;;;;6.63;2.75;;;18.70;49.10;;;;;;5031459;28;20076;-51
2023/05/24 11:10:34;;;;;;;9.50;2.88;;;18.80;49.40;;;;;;5024092;28;20045;-53
2023/05/24 11:13:07;;;;;;;4.95;2.42;;;18.90;49.10;;;;;;5023525;28;20053;-51
2023/05/24 11:15:34;;;;;;;9.13;3.50;;;19.10;47.90;;;;;;5031147;28;20049;-53
2023/05/24 11:18:12;;;;;;;9.57;3.30;;;19.20;47.90;;;;;;5022517;28;20045;-53
2023/05/24 11:20:47;;;;;;;5.95;3.25;;;19.30;48.50;;;;;;5027473;28;20065;-53
2023/05/24 11:23:15;;;;;;;6.25;2.92;;;19.40;47.70;;;;;;5021105;28;20549;-52
2023/05/24 11:25:43;;;;;;;6.20;2.55;;;19.50;47.30;;;;;;4999937;28;20066;-53
2023/05/24 11:28:11;;;;;;;5.50;2.90;;;19.60;47.10;;;;;;5022207;28;20828;-53
2023/05/24 11:30:42;;;;;;;3.85;2.28;;;19.70;47.00;;;;;;5027409;28;20050;-53
2023/05/24 11:33:13;;;;;;;4.47;2.88;;;19.80;46.50;;;;;;5025653;28;20137;-54
2023/05/24 11:35:40;;;;;;;7.30;2.70;;;20.00;45.90;;;;;;5027998;28;20454;-52
2023/05/24 11:38:14;;;;;;;6.53;3.03;;;20.00;46.10;;;;;;5025122;28;20038;-54
2023/05/24 11:40:45;;;;;;;6.40;2.97;;;20.10;45.60;;;;;;5026122;28;20044;-53
2023/05/24 11:43:17;;;;;;;8.00;3.20;;;20.20;46.00;;;;;;5022941;28;20117;-50
2023/05/24 11:45:47;;;;;;;7.53;3.05;;;20.30;46.10;;;;;;5021588;28;20133;-54
2023/05/24 11:48:15;;;;;;;8.43;2.83;;;20.40;45.70;;;;;;5026563;28;20049;-52
2023/05/24 11:50:45;;;;;;;6.45;2.92;;;20.50;45.00;;;;;;5024842;28;20042;-50
2023/05/24 11:53:18;;;;;;;8.32;2.92;;;20.50;45.00;;;;;;5008012;28;20679;-50
2023/05/24 11:55:45;;;;;;;5.65;3.35;;;20.60;44.90;;;;;;5022729;28;20050;-49
2023/05/24 11:58:22;;;;;;;4.88;2.67;;;20.60;44.90;;;;;;5007228;28;20049;-50
2023/05/24 12:00:49;;;;;;;7.63;3.15;;;20.60;44.70;;;;;;5006532;28;20041;-47
2023/05/24 12:03:16;;;;;;;8.20;3.00;;;20.60;45.50;;;;;;5023681;28;20038;-51
2023/05/24 12:05:43;;;;;;;7.40;2.63;;;20.60;44.60;;;;;;5029151;28;20042;-51
2023/05/24 12:08:12;;;;;;;7.07;2.70;;;20.60;44.80;;;;;;5030733;28;20494;-51
2023/05/24 12:10:40;;;;;;;8.23;2.67;;;20.60;44.30;;;;;;5024721;28;20060;-53
2023/05/24 12:13:26;;;;;;;8.43;3.20;;;20.70;44.10;;;;;;5018677;28;20041;-50
2023/05/24 12:15:54;;;;;;;9.88;3.33;;;20.80;44.50;;;;;;5031644;28;20551;-50
2023/05/24 12:18:27;;;;;;;6.88;2.78;;;20.90;43.80;;;;;;5026885;28;20041;-53
2023/05/24 12:20:54;;;;;;;4.33;2.57;;;20.90;43.40;;;;;;5020982;28;20080;-49
2023/05/24 12:23:26;;;;;;;7.03;2.40;;;21.00;43.70;;;;;;5029205;28;20342;-53
2023/05/24 12:26:00;;;;;;;6.80;2.72;;;21.10;44.10;;;;;;5028079;28;20038;-51
2023/05/24 12:28:34;;;;;;;6.03;2.88;;;21.10;43.20;;;;;;5020865;28;20049;-50
2023/05/24 12:31:02;;;;;;;5.70;2.58;;;21.10;42.60;;;;;;5022317;28;20509;-53
2023/05/24 12:33:30;;;;;;;7.13;3.30;;;21.20;42.60;;;;;;5024439;28;20125;-49
2023/05/24 12:35:57;;;;;;;5.13;2.63;;;21.20;42.80;;;;;;5019704;28;20065;-48
2023/05/24 12:38:24;;;;;;;11.27;3.08;;;21.20;43.00;;;;;;5029375;28;20430;-50
2023/05/24 12:40:52;;;;;;;6.90;2.95;;;21.30;42.90;;;;;;5030784;28;20038;-52
2023/05/24 12:43:38;;;;;;;5.10;2.70;;;21.30;43.10;;;;;;5027282;28;20429;-51
2023/05/24 12:46:05;;;;;;;6.30;3.10;;;21.30;42.50;;;;;;5022650;28;20128;-52
2023/05/24 12:48:32;;;;;;;7.35;3.30;;;21.30;42.10;;;;;;5029535;28;20120;-50
2023/05/24 12:50:59;;;;;;;8.43;3.22;;;21.30;41.70;;;;;;5028780;28;20577;-49
2023/05/24 12:53:25;;;;;;;6.95;2.90;;;21.20;42.10;;;;;;5020486;28;20041;-50
2023/05/24 12:55:54;;;;;;;7.25;3.30;;;21.20;42.50;;;;;;5001652;28;20056;-53
2023/05/24 12:58:21;;;;;;;4.65;2.75;;;21.10;42.50;;;;;;5020504;28;20080;-49